Time;durP1;ratioP1;P1;durP2;ratioP2;P2;SDS_P1;SDS_P2;PMS_P1;PMS_P2;Temp;Humidity;BMP_temperature;BMP_pressure;BME280_temperature;BME280_humidity;BME280_pressure;Samples;Min_cycle;Max_cycle;Signal;HPM_P1;HPM_P2
2021/11/06 00:02:51;;;;;;;2.92;1.00;;;8.60;99.90;;;;;;20537521;28;20054;-44
2021/11/06 00:12:53;;;;;;;2.72;0.93;;;8.60;99.90;;;;;;20541414;28;20064;-44
2021/11/06 00:22:54;;;;;;;5.10;1.08;;;8.60;99.90;;;;;;20558276;28;20515;-43
2021/11/06 00:32:56;;;;;;;6.70;1.98;;;8.50;99.90;;;;;;20562735;28;20034;-44
2021/11/06 00:42:57;;;;;;;2.92;1.15;;;8.50;99.90;;;;;;20553939;28;20051;-44
2021/11/06 00:52:58;;;;;;;3.42;1.55;;;8.50;99.90;;;;;;20523711;28;20305;-44
2021/11/06 01:03:00;;;;;;;3.67;1.45;;;8.60;99.90;;;;;;20526597;28;20061;-44
2021/11/06 01:13:01;;;;;;;3.08;1.40;;;8.50;99.90;;;;;;20542624;28;20042;-44
2021/11/06 01:23:03;;;;;;;7.25;1.73;;;8.50;99.90;;;;;;20546736;28;20539;-44
2021/11/06 01:33:04;;;;;;;6.25;1.48;;;8.60;99.90;;;;;;20556095;28;20029;-44
2021/11/06 01:43:06;;;;;;;7.00;2.00;;;8.60;99.90;;;;;;20566549;28;20056;-44
2021/11/06 01:53:07;;;;;;;4.65;2.53;;;8.70;99.90;;;;;;20546742;28;20042;-44
2021/11/06 02:03:09;;;;;;;5.40;2.03;;;8.70;99.90;;;;;;20544112;28;20050;-44
2021/11/06 02:13:10;;;;;;;4.35;1.80;;;8.70;99.90;;;;;;20548732;28;20041;-44
2021/11/06 02:23:11;;;;;;;6.95;2.15;;;8.70;99.90;;;;;;20543938;28;20051;-44
2021/11/06 02:33:12;;;;;;;7.45;2.33;;;8.70;99.90;;;;;;20545041;28;20045;-44
2021/11/06 02:43:13;;;;;;;5.85;2.63;;;8.60;99.90;;;;;;20555634;28;20581;-44
2021/11/06 02:53:14;;;;;;;3.70;1.92;;;8.60;99.90;;;;;;20559124;28;20049;-44
2021/11/06 03:03:15;;;;;;;5.55;3.03;;;8.50;99.90;;;;;;20547903;28;20073;-44
2021/11/06 03:13:17;;;;;;;6.72;2.90;;;8.50;99.90;;;;;;20558405;28;20574;-44
2021/11/06 03:23:18;;;;;;;7.15;2.92;;;8.50;99.90;;;;;;20527426;28;20043;-44
2021/11/06 03:33:20;;;;;;;4.68;2.40;;;8.50;99.90;;;;;;20543158;28;20046;-44
2021/11/06 03:43:21;;;;;;;8.07;3.22;;;8.50;99.90;;;;;;20541108;28;20043;-44
2021/11/06 03:53:24;;;;;;;12.73;3.90;;;8.40;99.90;;;;;;20554101;28;20512;-44
2021/11/06 04:03:26;;;;;;;7.00;2.78;;;8.50;99.90;;;;;;20553300;28;20067;-44
2021/11/06 04:13:27;;;;;;;10.48;3.28;;;8.60;99.90;;;;;;20571697;28;20045;-44
2021/11/06 04:23:28;;;;;;;9.90;3.42;;;8.60;99.90;;;;;;20557168;28;20039;-44
2021/11/06 04:33:30;;;;;;;7.20;3.47;;;8.60;99.90;;;;;;20570904;28;20027;-44
2021/11/06 04:43:32;;;;;;;6.47;3.25;;;8.50;99.90;;;;;;20580985;28;20058;-44
2021/11/06 04:53:33;;;;;;;7.93;3.80;;;8.60;99.90;;;;;;20591156;28;20607;-44
2021/11/06 05:03:34;;;;;;;9.68;4.30;;;8.70;99.90;;;;;;20570566;28;20061;-44
2021/11/06 05:13:35;;;;;;;10.90;3.72;;;8.60;99.90;;;;;;20555766;28;20046;-44
2021/11/06 05:23:36;;;;;;;11.82;5.03;;;8.70;99.90;;;;;;20550567;28;20049;-44
2021/11/06 05:33:40;;;;;;;14.90;4.40;;;8.70;99.90;;;;;;20558506;28;20034;-44
2021/11/06 05:43:42;;;;;;;9.27;4.60;;;8.60;99.90;;;;;;20576555;28;20058;-44
2021/11/06 05:53:43;;;;;;;12.98;4.72;;;8.80;99.90;;;;;;20555441;28;20038;-44
2021/11/06 06:03:44;;;;;;;11.73;4.80;;;8.70;99.90;;;;;;20579329;28;20083;-44
2021/11/06 06:13:45;;;;;;;9.57;4.40;;;8.80;99.90;;;;;;20549147;28;20050;-44
2021/11/06 06:23:47;;;;;;;10.25;4.60;;;8.80;99.90;;;;;;20544743;28;20050;-44
2021/11/06 06:33:48;;;;;;;8.82;4.65;;;8.90;99.90;;;;;;20542359;28;20038;-44
2021/11/06 06:43:49;;;;;;;8.85;4.75;;;8.80;99.90;;;;;;20570552;28;20039;-44
2021/11/06 06:53:50;;;;;;;14.25;5.32;;;9.00;99.90;;;;;;20542118;28;20058;-43
2021/11/06 07:03:51;;;;;;;10.13;5.20;;;9.10;99.90;;;;;;20544870;28;20059;-44
2021/11/06 07:13:53;;;;;;;11.82;5.32;;;9.00;99.90;;;;;;20551469;28;20035;-44
2021/11/06 07:23:54;;;;;;;11.82;4.82;;;9.00;99.90;;;;;;20573573;28;20057;-44
2021/11/06 07:33:55;;;;;;;11.15;4.22;;;9.00;99.90;;;;;;20576334;28;20606;-44
2021/11/06 07:43:56;;;;;;;9.38;4.15;;;9.00;99.90;;;;;;20564840;28;20058;-44
2021/11/06 07:53:58;;;;;;;8.27;4.65;;;9.00;99.90;;;;;;20560727;28;20038;-44
2021/11/06 08:03:59;;;;;;;11.57;5.15;;;9.20;99.90;;;;;;20561354;28;20496;-44
2021/11/06 08:14:00;;;;;;;13.48;5.25;;;9.20;99.90;;;;;;20592655;28;20042;-44
2021/11/06 08:24:02;;;;;;;10.07;4.53;;;9.20;99.90;;;;;;20607477;28;20030;-44
2021/11/06 08:34:03;;;;;;;7.78;3.72;;;9.20;99.90;;;;;;20570254;28;20049;-43
2021/11/06 08:44:04;;;;;;;16.25;4.60;;;9.40;99.90;;;;;;20553790;28;20041;-43
2021/11/06 08:54:05;;;;;;;7.20;3.47;;;9.50;99.90;;;;;;20557063;28;20034;-43
2021/11/06 09:04:07;;;;;;;10.20;3.40;;;9.60;99.90;;;;;;20594014;28;20046;-43
2021/11/06 09:14:09;;;;;;;6.38;2.55;;;9.70;99.90;;;;;;20585480;28;20039;-43
2021/11/06 09:24:10;;;;;;;10.20;3.25;;;9.70;99.90;;;;;;20536504;28;20401;-43
2021/11/06 09:34:12;;;;;;;8.43;3.00;;;9.80;99.90;;;;;;20550985;28;20581;-43
2021/11/06 09:44:14;;;;;;;6.88;2.22;;;10.00;99.90;;;;;;20561660;28;20039;-43
2021/11/06 09:54:15;;;;;;;9.68;2.88;;;10.20;99.90;;;;;;20547721;28;20449;-43
2021/11/06 10:04:16;;;;;;;5.15;1.90;;;10.20;99.90;;;;;;20527045;28;20054;-43
2021/11/06 10:14:21;;;;;;;6.85;2.83;;;10.30;99.90;;;;;;20500907;28;20057;-43
2021/11/06 10:24:36;;;;;;;5.28;2.75;;;10.30;99.90;;;;;;20588634;28;20571;-44
2021/11/06 10:34:40;;;;;;;8.88;3.25;;;10.40;99.90;;;;;;20570108;28;20093;-44
2021/11/06 10:44:42;;;;;;;14.88;2.78;;;10.60;99.90;;;;;;20538086;28;20054;-44
2021/11/06 10:55:05;;;;;;;10.25;3.22;;;10.60;99.90;;;;;;20541442;28;20035;-44
2021/11/06 11:05:35;;;;;;;7.35;1.85;;;10.60;99.90;;;;;;20540099;28;20050;-44
2021/11/06 11:15:39;;;;;;;6.85;2.30;;;10.70;99.90;;;;;;20534904;28;20046;-44
2021/11/06 11:25:42;;;;;;;4.78;2.00;;;10.70;99.90;;;;;;20526805;28;20045;-44
2021/11/06 11:35:44;;;;;;;5.30;1.70;;;10.60;99.90;;;;;;20538719;28;20058;-44
2021/11/06 11:46:00;;;;;;;5.18;2.22;;;10.80;99.90;;;;;;20483957;28;20053;-44
2021/11/06 11:56:16;;;;;;;7.35;1.98;;;11.10;99.90;;;;;;20535790;28;20042;-44
2021/11/06 12:06:27;;;;;;;5.45;2.55;;;11.40;99.90;;;;;;20558179;28;20705;-44
2021/11/06 12:16:51;;;;;;;7.00;2.58;;;11.70;99.90;;;;;;20550921;28;20048;-44
2021/11/06 12:26:58;;;;;;;5.68;2.20;;;11.60;99.90;;;;;;20555282;28;20530;-44
2021/11/06 12:37:00;;;;;;;;;;;11.60;99.90;;;;;;20545406;28;20086;-44
2021/11/06 12:47:07;;;;;;;6.10;2.65;;;11.60;99.90;;;;;;20554028;28;19921;-44
2021/11/06 12:57:08;;;;;;;6.85;2.90;;;11.50;99.90;;;;;;20549490;28;20504;-44
2021/11/06 13:07:10;;;;;;;8.52;2.88;;;11.60;99.90;;;;;;20573736;28;20157;-44
2021/11/06 13:17:22;;;;;;;5.30;2.50;;;11.60;99.90;;;;;;20494331;28;20038;-44
2021/11/06 13:27:39;;;;;;;4.63;2.25;;;11.60;99.90;;;;;;20550281;28;20047;-44
2021/11/06 13:37:40;;;;;;;4.53;1.95;;;11.50;99.90;;;;;;20571356;28;20061;-44
2021/11/06 13:47:45;;;;;;;4.03;1.85;;;11.50;99.90;;;;;;20584335;28;20055;-44
2021/11/06 13:57:52;;;;;;;6.05;2.25;;;11.60;99.90;;;;;;20571042;28;20061;-44
2021/11/06 14:07:56;;;;;;;8.13;2.33;;;11.70;99.90;;;;;;20562893;28;20043;-44
2021/11/06 14:18:01;;;;;;;12.50;4.20;;;11.60;99.90;;;;;;20563584;28;20696;-44
2021/11/06 14:28:12;;;;;;;7.82;3.05;;;11.60;99.90;;;;;;20582473;28;20041;-44
2021/11/06 14:38:14;;;;;;;7.78;2.85;;;11.50;99.90;;;;;;20557584;28;20061;-44
2021/11/06 14:48:18;;;;;;;4.30;2.22;;;11.60;99.90;;;;;;20565646;28;20047;-44
2021/11/06 14:58:19;;;;;;;5.32;2.83;;;11.50;99.90;;;;;;20567170;28;20505;-44
2021/11/06 15:08:24;;;;;;;4.88;2.10;;;11.40;99.90;;;;;;20561899;28;20062;-44
2021/11/06 15:18:26;;;;;;;6.47;2.75;;;11.40;99.90;;;;;;20554002;28;20057;-44
2021/11/06 15:28:28;;;;;;;5.57;2.78;;;11.50;99.90;;;;;;20564029;28;20035;-44
2021/11/06 15:38:29;;;;;;;7.65;3.97;;;11.40;99.90;;;;;;20561460;28;20059;-44
2021/11/06 15:48:33;;;;;;;7.05;3.15;;;11.40;99.90;;;;;;20558018;28;20090;-44
2021/11/06 15:58:34;;;;;;;9.98;3.97;;;11.30;99.90;;;;;;20566913;28;20539;-44
2021/11/06 16:08:35;;;;;;;9.80;3.55;;;11.30;99.90;;;;;;20560474;28;20114;-44
2021/11/06 16:18:40;;;;;;;7.80;3.60;;;11.30;99.90;;;;;;20572926;28;20053;-43
2021/11/06 16:28:44;;;;;;;7.80;4.18;;;11.30;99.90;;;;;;20566429;28;20050;-44
2021/11/06 16:38:46;;;;;;;11.35;4.60;;;11.40;99.90;;;;;;20557104;28;20062;-44
2021/11/06 16:48:47;;;;;;;13.82;5.18;;;11.20;99.90;;;;;;20535757;28;20055;-44
2021/11/06 16:58:50;;;;;;;10.93;5.88;;;11.20;99.90;;;;;;20559616;28;20045;-44
2021/11/06 17:09:13;;;;;;;9.50;3.95;;;11.20;99.90;;;;;;20556775;28;20050;-44
2021/11/06 17:19:14;;;;;;;15.77;5.38;;;11.10;99.90;;;;;;20543253;28;20066;-44
2021/11/06 17:29:15;;;;;;;10.65;4.53;;;11.10;99.90;;;;;;20554276;28;20035;-44
2021/11/06 17:39:16;;;;;;;14.63;5.57;;;11.30;99.90;;;;;;20553027;28;20062;-44
2021/11/06 17:49:21;;;;;;;11.32;4.22;;;11.20;99.90;;;;;;20546741;28;20508;-43
2021/11/06 17:59:23;;;;;;;9.27;4.15;;;11.20;99.90;;;;;;20559407;28;20534;-43
2021/11/06 18:09:24;;;;;;;10.10;4.60;;;11.20;99.90;;;;;;20525141;28;20046;-43
2021/11/06 18:19:25;;;;;;;9.48;4.43;;;11.30;99.90;;;;;;20543165;28;20869;-43
2021/11/06 18:29:26;;;;;;;9.52;3.72;;;11.20;99.90;;;;;;20551067;28;20511;-43
2021/11/06 18:39:27;;;;;;;10.23;4.05;;;11.20;99.90;;;;;;20540342;28;20084;-44
2021/11/06 18:49:29;;;;;;;12.82;4.93;;;11.10;99.90;;;;;;20544215;28;20039;-44
2021/11/06 18:59:30;;;;;;;9.48;4.22;;;11.20;99.90;;;;;;20549014;28;20046;-44
2021/11/06 19:09:34;;;;;;;6.30;3.95;;;11.00;99.90;;;;;;20551360;28;20691;-43
2021/11/06 19:19:35;;;;;;;6.07;2.92;;;11.00;99.90;;;;;;20541399;28;20066;-43
2021/11/06 19:29:36;;;;;;;8.18;3.97;;;11.10;99.90;;;;;;20540120;28;20030;-43
2021/11/06 19:39:38;;;;;;;4.97;2.63;;;11.10;99.90;;;;;;20533607;28;20051;-43
2021/11/06 19:49:40;;;;;;;6.45;3.15;;;11.20;99.90;;;;;;20544592;28;20447;-44
2021/11/06 19:59:41;;;;;;;7.25;3.47;;;11.10;99.90;;;;;;20572592;28;20046;-43
2021/11/06 20:09:42;;;;;;;8.50;3.53;;;11.10;99.90;;;;;;20560730;28;20684;-43
2021/11/06 20:19:43;;;;;;;6.50;3.28;;;11.20;99.90;;;;;;20564727;28;20405;-43
2021/11/06 20:29:45;;;;;;;9.90;4.22;;;11.30;99.90;;;;;;20547783;28;20038;-44
2021/11/06 20:39:50;;;;;;;6.95;2.85;;;11.40;99.90;;;;;;20564059;28;20079;-44
2021/11/06 20:49:51;;;;;;;6.82;2.47;;;11.50;99.90;;;;;;20557197;28;20042;-43
2021/11/06 20:59:52;;;;;;;6.57;2.28;;;11.40;99.90;;;;;;20551077;28;20375;-43
2021/11/06 21:09:58;;;;;;;6.03;2.63;;;11.40;99.90;;;;;;20551894;28;20050;-44
2021/11/06 21:19:59;;;;;;;11.18;3.08;;;11.40;99.90;;;;;;20558405;28;20039;-43
2021/11/06 21:30:01;;;;;;;13.25;3.30;;;11.40;99.90;;;;;;20552305;28;20551;-43
2021/11/06 21:40:05;;;;;;;10.38;3.22;;;11.30;99.90;;;;;;20575296;28;20046;-43
2021/11/06 21:50:09;;;;;;;7.07;2.22;;;11.30;99.90;;;;;;20564364;28;21366;-43
2021/11/06 22:00:33;;;;;;;6.32;3.05;;;11.00;99.90;;;;;;20553030;28;20058;-43
2021/11/06 22:10:36;;;;;;;6.13;2.70;;;11.00;99.90;;;;;;20555374;28;20039;-43
2021/11/06 22:20:40;;;;;;;7.97;2.17;;;10.90;99.90;;;;;;20540978;28;20062;-43
2021/11/06 22:30:42;;;;;;;5.53;2.10;;;10.90;99.90;;;;;;20558986;28;20039;-43
2021/11/06 22:40:44;;;;;;;4.50;2.05;;;10.80;99.90;;;;;;20547763;28;20046;-43
2021/11/06 22:50:47;;;;;;;6.20;2.00;;;10.80;99.90;;;;;;20550749;28;20041;-43
2021/11/06 23:01:06;;;;;;;4.43;2.05;;;10.70;99.90;;;;;;20548136;28;20063;-43
2021/11/06 23:11:12;;;;;;;6.07;2.10;;;10.70;99.90;;;;;;20537908;28;20054;-43
2021/11/06 23:21:15;;;;;;;4.55;2.05;;;10.70;99.90;;;;;;20575379;28;20054;-43
2021/11/06 23:31:17;;;;;;;3.90;1.90;;;10.80;99.90;;;;;;20541315;28;20054;-43
2021/11/06 23:41:21;;;;;;;2.72;0.95;;;10.90;99.90;;;;;;20553017;28;20062;-43
2021/11/06 23:51:30;;;;;;;4.50;1.50;;;10.90;99.90;;;;;;20543555;28;20043;-43
